Ogdensburg, WI

6:16 AM CDT on October 22, 2019 (GMT -0500)
Bear Lake | | Change Station

Elev 806 ft 44.40 °N, 88.94 °W | Updated 1 minute ago

Rain
Rain
43.8 °F
Feels Like 44 °F
N
2
Wind Variable Wind from SW
Gusts 8.0 mph

Today
High -- | Low -- °F
--% Chance of Precip.
Yesterday
High -- | Low -- °F
Precip. -- in
Pressure 29.21 in
Visibility 7.0 miles
Clouds Mostly Cloudy 1400 ft
Overcast 2000 ft
Windchill 44 °F
Dew Point 42 °F
Humidity 94%
Rainfall 0.17 in
Snow Depth Not available.
7:19 AM 6:00 PM
Last Quarter, 39% visible
METAR KPCZ 221055Z AUTO 21009G15KT 7SM -RA BKN014 OVC020 08/06 A2921 RMK AO2 P0005 T00750061
Pressure 29.21 in
Visibility 7.0 miles
Clouds Mostly Cloudy 1400 ft
Overcast 2000 ft
Windchill 44 °F
Dew Point 42 °F
Humidity 94%
Rainfall 0.17 in
Snow Depth Not available.
7:19 AM 6:00 PM
Last Quarter, 39% visible
METAR KPCZ 221055Z AUTO 21009G15KT 7SM -RA BKN014 OVC020 08/06 A2921 RMK AO2 P0005 T00750061

Get Severe Weather Alerts

Thanks for signing up!

Be on the lookout for a verification email in your inbox.

You'll start receiving the daily forecast at 6 AM.

×

10-Day Weather Forecast

Almanac

Astronomy

Oct. 22, 2019 Rise Set
Actual Time
Civil Twilight
Nautical Twilight
Astronomical Twilight
Moon
Length of Visible Light
Length of Day
Tomorrow will be .
, % of the Moon is Illuminated

Today's Extremes

State Highs State Lows

Community

WunderPhotos

Category 6

Welcome to Category 6. This is the collective home for Weather Underground's featured writeups by Dr. Jeff Masters (right), Bob Henson (left), Chris Burt, and other regular contributors.

Nearby

Air Quality

  Air Quality AQ Index Pollutant
Not available.

Snow Depth

Station Depth Elevation

Earthquake Activity

City Distance Mag. Time & Date
Minimum magnitude displayed is 2.5.

Coastal Water Temperatures

Place Temperature

Stations

Nearby Weather Stations

Station Location Temp. Windchill Dew Point Humidity Wind Precip. Elev Updated Type
                   

Watches & Warnings

There are currently no watches in effect.